createdAt,value
2023-03-11T00:16:58.814Z,24.96
2023-03-11T00:17:58.791Z,24.96
2023-03-11T00:18:58.762Z,24.96
2023-03-11T00:19:58.732Z,24.96
2023-03-11T00:20:58.702Z,24.96
2023-03-11T00:21:58.712Z,24.96
2023-03-11T00:22:58.653Z,24.96
2023-03-11T00:23:58.636Z,24.96
2023-03-11T00:24:58.608Z,24.95
2023-03-11T00:25:58.692Z,24.96
2023-03-11T00:26:58.579Z,24.95
2023-03-11T00:27:58.542Z,24.99
2023-03-11T00:28:58.524Z,24.96
2023-03-11T00:29:58.489Z,24.95
2023-03-11T00:31:58.477Z,24.95
2023-03-11T00:32:58.429Z,24.98
2023-03-11T00:33:58.417Z,24.93
2023-03-11T00:34:58.382Z,24.95
2023-03-11T00:35:58.387Z,24.96
2023-03-11T00:36:58.354Z,24.95
2023-03-11T00:37:58.321Z,24.96
2023-03-11T00:38:58.333Z,24.93
2023-03-11T00:39:58.288Z,24.95
2023-03-11T00:40:58.268Z,24.93
2023-03-11T00:41:58.249Z,24.89
2023-03-11T00:42:58.222Z,24.91
2023-03-11T00:45:58.180Z,24.93
2023-03-11T00:46:58.129Z,24.93
2023-03-11T00:47:58.113Z,24.95
2023-03-11T00:48:58.072Z,24.92
2023-03-11T00:49:58.058Z,24.93
2023-03-11T00:50:58.029Z,24.93
2023-03-11T00:51:58.011Z,24.92
2023-03-11T00:52:57.982Z,24.95
2023-03-11T00:53:57.967Z,24.93
2023-03-11T00:54:57.933Z,24.93
2023-03-11T00:55:57.916Z,24.92
2023-03-11T00:56:57.905Z,24.91
2023-03-11T00:57:57.871Z,24.91
2023-03-11T00:58:57.838Z,24.91
2023-03-11T00:59:57.808Z,24.92
2023-03-11T01:00:57.852Z,24.92
2023-03-11T01:01:57.775Z,24.91
2023-03-11T01:02:57.743Z,24.89
2023-03-11T01:03:57.721Z,24.91
2023-03-11T01:04:57.698Z,24.92
2023-03-11T01:05:57.661Z,24.89
2023-03-11T01:06:57.663Z,24.92
2023-03-11T01:07:57.617Z,24.91
2023-03-11T01:08:57.595Z,24.92
2023-03-11T01:09:57.581Z,24.92
2023-03-11T01:10:57.551Z,24.91
2023-03-11T01:11:57.499Z,24.92
2023-03-11T01:12:57.477Z,24.89
2023-03-11T01:13:57.453Z,24.93
2023-03-11T01:14:57.413Z,24.92
2023-03-11T01:15:57.427Z,24.92
2023-03-11T01:16:57.386Z,24.91
2023-03-11T01:17:57.362Z,24.92
2023-03-11T01:18:57.337Z,24.92
2023-03-11T01:19:57.330Z,24.92
2023-03-11T01:20:57.292Z,24.91
2023-03-11T01:21:57.261Z,24.92
2023-03-11T01:22:57.255Z,24.92
2023-03-11T01:23:57.241Z,24.88
2023-03-11T01:24:57.229Z,24.91
2023-03-11T01:25:57.196Z,24.92
2023-03-11T01:26:57.239Z,24.89
2023-03-11T01:27:57.138Z,24.91
2023-03-11T01:28:57.109Z,24.91
2023-03-11T01:29:57.098Z,24.89
2023-03-11T01:30:57.096Z,24.91
2023-03-11T01:31:57.050Z,24.89
2023-03-11T01:32:57.041Z,24.89
2023-03-11T01:33:57.008Z,24.89
2023-03-11T01:34:56.988Z,24.91
2023-03-11T01:35:57.058Z,24.91
2023-03-11T01:36:56.954Z,24.92
2023-03-11T01:37:56.960Z,24.91
2023-03-11T01:38:56.929Z,24.91
2023-03-11T01:39:56.903Z,24.92
2023-03-11T01:40:56.883Z,24.89
2023-03-11T01:41:56.855Z,24.91
2023-03-11T01:42:56.847Z,24.91
2023-03-11T01:43:56.837Z,24.89
2023-03-11T01:44:56.792Z,24.91
2023-03-11T01:45:56.779Z,24.89
2023-03-11T01:46:56.772Z,24.91
2023-03-11T01:47:56.749Z,24.89
2023-03-11T01:48:56.716Z,24.92
2023-03-11T01:49:56.683Z,24.89
2023-03-11T01:50:56.689Z,24.88
2023-03-11T01:51:56.673Z,24.89
2023-03-11T01:52:56.650Z,24.89
2023-03-11T01:53:56.629Z,24.89
2023-03-11T01:54:56.597Z,24.89
2023-03-11T01:55:56.577Z,24.88
2023-03-11T01:56:56.585Z,24.86
2023-03-11T01:57:56.558Z,24.88
2023-03-11T01:58:56.527Z,24.86
2023-03-11T01:59:56.505Z,24.86
2023-03-11T02:00:56.494Z,24.86
2023-03-11T02:01:56.478Z,24.88
2023-03-11T02:02:56.495Z,24.88
2023-03-11T02:03:56.469Z,24.88
2023-03-11T02:04:56.399Z,24.86
2023-03-11T02:05:56.387Z,24.88
2023-03-11T02:06:56.365Z,24.85
2023-03-11T02:07:56.382Z,24.86
2023-03-11T02:08:56.308Z,24.84
2023-03-11T02:09:56.282Z,24.88
2023-03-11T02:10:56.277Z,24.86
2023-03-11T02:11:56.243Z,24.86
2023-03-11T02:12:56.228Z,24.86
2023-03-11T02:13:56.191Z,24.86
2023-03-11T02:14:56.170Z,24.85
2023-03-11T02:15:56.193Z,24.88
2023-03-11T02:16:56.127Z,24.86
2023-03-11T02:17:56.123Z,24.88
2023-03-11T02:18:56.094Z,24.86
2023-03-11T02:19:56.064Z,24.86
2023-03-11T02:20:56.036Z,24.86
2023-03-11T02:21:56.023Z,24.86
2023-03-11T02:22:56.004Z,24.85
2023-03-11T02:23:55.954Z,24.86
2023-03-11T02:24:55.947Z,24.86
2023-03-11T02:25:55.911Z,24.84
2023-03-11T02:26:55.891Z,24.82
2023-03-11T02:27:55.914Z,24.86
2023-03-11T02:28:55.826Z,24.85
2023-03-11T02:29:55.799Z,24.85
2023-03-11T02:30:55.768Z,24.84
2023-03-11T02:31:55.784Z,24.85
2023-03-11T02:32:55.734Z,24.84
2023-03-11T02:33:55.719Z,24.85
2023-03-11T02:34:55.689Z,24.86
2023-03-11T02:35:55.723Z,24.82
2023-03-11T02:36:55.647Z,24.85
2023-03-11T02:37:55.629Z,24.84
2023-03-11T02:38:55.603Z,24.84
2023-03-11T02:39:55.567Z,24.88
2023-03-11T02:40:55.573Z,24.86
2023-03-11T02:41:55.507Z,24.86
2023-03-11T02:42:55.511Z,24.85
2023-03-11T02:43:55.478Z,24.84
2023-03-11T02:44:55.464Z,24.85
2023-03-11T02:45:55.432Z,24.82
2023-03-11T02:46:55.489Z,24.85
2023-03-11T02:47:55.401Z,24.84
2023-03-11T02:48:55.390Z,24.84
2023-03-11T02:49:55.347Z,24.84
2023-03-11T02:50:55.364Z,24.82
2023-03-11T02:51:55.336Z,24.84
2023-03-11T02:52:55.297Z,24.82
2023-03-11T02:53:55.406Z,24.81
2023-03-11T02:54:55.245Z,24.79
2023-03-11T02:55:55.242Z,24.79
2023-03-11T02:56:55.215Z,24.79
2023-03-11T02:57:55.208Z,24.79
2023-03-11T02:58:55.189Z,24.81
2023-03-11T02:59:55.154Z,24.81
2023-03-11T03:00:55.211Z,24.81
2023-03-11T03:01:55.129Z,24.81
2023-03-11T03:02:55.111Z,24.84
2023-03-11T03:03:55.103Z,24.82
2023-03-11T03:04:55.107Z,24.81
2023-03-11T03:05:55.097Z,24.79
2023-03-11T03:06:55.046Z,24.82
2023-03-11T03:07:55.010Z,24.81
2023-03-11T03:08:54.997Z,24.79
2023-03-11T03:09:55.008Z,24.79
2023-03-11T03:10:54.978Z,24.79
2023-03-11T03:11:54.972Z,24.79
2023-03-11T03:12:54.933Z,24.81
2023-03-11T03:13:54.921Z,24.81
2023-03-11T03:14:54.923Z,24.84
2023-03-11T03:15:54.869Z,24.84
2023-03-11T03:16:55.044Z,24.79
2023-03-11T03:17:54.830Z,24.82
2023-03-11T03:18:54.811Z,24.81
2023-03-11T03:19:54.812Z,24.79
2023-03-11T03:20:54.795Z,24.81
2023-03-11T03:21:54.749Z,24.79
2023-03-11T03:22:54.714Z,24.81
2023-03-11T03:23:54.703Z,24.81
2023-03-11T03:24:54.669Z,24.81
2023-03-11T03:25:54.636Z,24.79
2023-03-11T03:26:54.631Z,24.81
2023-03-11T03:27:54.607Z,24.79
2023-03-11T03:28:54.625Z,24.79
2023-03-11T03:29:54.556Z,24.79
2023-03-11T03:30:54.519Z,24.79
2023-03-11T03:31:54.500Z,24.79
2023-03-11T03:32:54.538Z,24.79
2023-03-11T03:33:54.450Z,24.78
2023-03-11T03:34:54.446Z,24.81
2023-03-11T03:35:54.424Z,24.79
2023-03-11T03:36:54.381Z,24.82
2023-03-11T03:37:54.386Z,24.79
2023-03-11T03:38:54.339Z,24.78
2023-03-11T03:39:54.325Z,24.81
2023-03-11T03:40:54.286Z,24.82
2023-03-11T03:41:54.266Z,24.79
2023-03-11T03:42:54.241Z,24.79
2023-03-11T03:43:54.238Z,24.79
2023-03-11T03:44:54.215Z,24.79
2023-03-11T03:45:54.183Z,24.79
2023-03-11T03:46:54.158Z,24.79
2023-03-11T03:47:54.120Z,24.79
2023-03-11T03:48:54.116Z,24.79
2023-03-11T03:49:54.113Z,24.82
2023-03-11T03:50:54.184Z,24.79
2023-03-11T03:51:54.100Z,24.78
2023-03-11T03:52:54.030Z,24.81
2023-03-11T03:53:54.087Z,24.81
2023-03-11T03:54:53.951Z,24.81
2023-03-11T03:55:53.917Z,24.79
2023-03-11T03:56:53.901Z,24.79
2023-03-11T03:57:53.872Z,24.79
2023-03-11T03:58:53.856Z,24.75
2023-03-11T03:59:53.851Z,24.79
2023-03-11T04:00:53.790Z,24.78
2023-03-11T04:01:53.780Z,24.78
2023-03-11T04:02:53.745Z,24.79
2023-03-11T04:03:53.712Z,24.78
2023-03-11T04:04:53.688Z,24.75
2023-03-11T04:05:53.662Z,24.78
2023-03-11T04:06:53.641Z,24.79
2023-03-11T04:07:53.607Z,24.79
2023-03-11T04:08:53.598Z,24.79
2023-03-11T04:09:53.621Z,24.77
2023-03-11T04:10:53.524Z,24.78
2023-03-11T04:11:53.533Z,24.77
2023-03-11T04:12:53.488Z,24.79
2023-03-11T04:13:53.465Z,24.78
2023-03-11T04:14:53.476Z,24.77
2023-03-11T04:15:53.461Z,24.75
2023-03-11T04:16:53.447Z,24.78
2023-03-11T04:17:53.369Z,24.78
2023-03-11T04:18:53.345Z,24.79
2023-03-11T04:19:53.344Z,24.77
2023-03-11T04:20:53.300Z,24.77
2023-03-11T04:21:53.280Z,24.78
2023-03-11T04:22:53.281Z,24.77
2023-03-11T04:23:53.247Z,24.77
2023-03-11T04:24:53.213Z,24.77
2023-03-11T04:25:53.176Z,24.78
2023-03-11T04:26:53.177Z,24.77
2023-03-11T04:27:53.132Z,24.78
2023-03-11T04:28:53.134Z,24.75
2023-03-11T04:29:53.119Z,24.77
2023-03-11T04:30:53.166Z,24.77
2023-03-11T04:31:53.057Z,24.77
2023-03-11T04:32:53.031Z,24.78
2023-03-11T04:33:52.999Z,24.77
2023-03-11T04:34:53.041Z,24.78
2023-03-11T04:35:52.982Z,24.75
2023-03-11T04:36:52.941Z,24.77
2023-03-11T04:37:52.911Z,24.78
2023-03-11T04:38:52.886Z,24.75
2023-03-11T04:39:52.872Z,24.77
2023-03-11T04:40:52.849Z,24.77
2023-03-11T04:41:52.821Z,24.78
2023-03-11T04:42:52.794Z,24.77
2023-03-11T04:43:52.773Z,24.77
2023-03-11T04:44:52.778Z,24.78
2023-03-11T04:45:52.749Z,24.79
2023-03-11T04:46:52.705Z,24.77
2023-03-11T04:47:52.682Z,24.77
2023-03-11T04:48:52.656Z,24.78
2023-03-11T04:49:52.648Z,24.78
2023-03-11T04:50:52.628Z,24.75
2023-03-11T04:51:52.598Z,24.75
2023-03-11T04:52:52.582Z,24.75
2023-03-11T04:53:52.588Z,24.78
2023-03-11T04:54:52.554Z,24.78
2023-03-11T04:55:52.523Z,24.78
2023-03-11T04:56:52.527Z,24.77
2023-03-11T04:57:52.562Z,24.77
2023-03-11T04:58:52.489Z,24.77
2023-03-11T04:59:52.466Z,24.78
2023-03-11T05:00:52.466Z,24.78
2023-03-11T05:01:52.467Z,24.77
2023-03-11T05:02:52.485Z,24.75
2023-03-11T05:04:52.495Z,24.78
2023-03-11T05:05:52.471Z,24.75
2023-03-11T05:07:52.399Z,24.78
2023-03-11T09:42:45.953Z,25.73
2023-03-11T10:07:45.148Z,25.84
2023-03-11T10:08:45.108Z,25.87
2023-03-11T10:09:45.082Z,25.88
2023-03-11T10:10:45.039Z,25.89
2023-03-11T10:11:45.016Z,25.95
2023-03-11T10:12:44.984Z,25.94
2023-03-11T10:13:44.942Z,25.95
2023-03-11T10:14:44.915Z,25.99
2023-03-11T10:15:44.891Z,25.99
2023-03-11T10:16:44.862Z,26.01
2023-03-11T10:17:44.803Z,26.02
2023-03-11T10:18:44.769Z,26.01
2023-03-11T10:19:44.738Z,26.02
2023-03-11T10:20:44.718Z,26.01
2023-03-11T10:21:44.666Z,26.02
2023-03-11T10:22:44.639Z,26.08
2023-03-11T10:23:44.637Z,26.09
2023-03-11T10:24:44.579Z,26.08
2023-03-11T10:25:44.544Z,26.09
2023-03-11T10:26:44.537Z,26.11
2023-03-11T10:27:44.485Z,26.12
2023-03-11T10:28:44.444Z,26.15
2023-03-11T10:29:44.457Z,26.16
2023-03-11T10:30:44.385Z,26.13
2023-03-11T10:31:44.370Z,26.15
2023-03-11T10:32:44.406Z,26.18
2023-03-11T10:33:46.610Z,26.19
2023-03-11T10:34:44.260Z,26.20
2023-03-11T10:35:44.238Z,26.23
2023-03-11T10:36:44.180Z,26.22
2023-03-11T10:37:49.740Z,26.23
2023-03-11T10:39:44.085Z,26.29
2023-03-11T10:40:44.049Z,26.30
2023-03-11T10:41:44.020Z,26.30
2023-03-11T10:42:43.988Z,26.33
2023-03-11T10:43:43.954Z,26.35
2023-03-11T10:44:43.925Z,26.36
2023-03-11T10:45:43.915Z,26.38
2023-03-11T10:46:43.856Z,26.42
2023-03-11T10:47:43.797Z,26.42
2023-03-11T10:48:43.754Z,26.40
2023-03-11T10:49:43.719Z,26.40
2023-03-11T10:50:43.680Z,26.42
2023-03-11T10:51:43.624Z,26.39
2023-03-11T10:52:43.607Z,26.36
2023-03-11T10:53:43.549Z,26.39
2023-03-11T10:54:43.518Z,26.39
2023-03-11T10:55:43.464Z,26.40
2023-03-11T10:56:43.442Z,26.44
2023-03-11T10:57:43.401Z,26.43
2023-03-11T10:58:43.408Z,26.49
2023-03-11T10:59:43.301Z,26.49
2023-03-11T11:00:43.281Z,26.53
2023-03-11T11:01:43.238Z,26.54
2023-03-11T11:02:43.870Z,26.54
2023-03-11T11:03:43.137Z,26.54
2023-03-11T11:04:43.109Z,26.60
2023-03-11T11:05:43.063Z,26.56
2023-03-11T11:06:43.034Z,26.57
2023-03-11T11:07:42.963Z,26.58
2023-03-11T11:08:42.930Z,26.60
2023-03-11T11:09:42.877Z,26.60
2023-03-11T11:10:42.843Z,26.61
2023-03-11T11:11:42.793Z,26.61
2023-03-11T11:12:42.749Z,26.63
2023-03-11T11:13:42.705Z,26.66
2023-03-11T11:14:42.681Z,26.61
2023-03-11T11:15:42.631Z,26.64
2023-03-11T11:16:42.651Z,26.64
2023-03-11T11:17:42.556Z,26.66
2023-03-11T11:18:42.495Z,26.64
2023-03-11T11:19:42.467Z,26.67
2023-03-11T11:20:42.417Z,26.66
2023-03-11T11:21:42.357Z,26.70
2023-03-11T11:22:42.321Z,26.73
2023-03-11T11:23:42.303Z,26.77
2023-03-11T11:24:42.250Z,26.73
2023-03-11T11:25:42.200Z,26.77
2023-03-11T11:26:42.145Z,26.81
2023-03-11T11:27:42.096Z,26.81
2023-03-11T11:28:42.052Z,26.83
2023-03-11T11:29:42.017Z,26.83
2023-03-11T11:30:41.986Z,26.84
2023-03-11T11:31:41.923Z,26.84
2023-03-11T11:32:41.900Z,26.85
2023-03-11T11:33:41.849Z,26.83
2023-03-11T11:34:41.803Z,26.80
2023-03-11T11:35:41.778Z,26.80
2023-03-11T11:36:41.810Z,26.78
2023-03-11T11:37:41.673Z,26.78
2023-03-11T11:38:41.618Z,26.74
2023-03-11T11:39:41.568Z,26.77
2023-03-11T11:40:41.550Z,26.80
2023-03-11T11:41:41.508Z,26.78
2023-03-11T11:42:41.489Z,26.78
2023-03-11T11:43:41.414Z,26.81
2023-03-11T11:44:41.347Z,26.85
2023-03-11T11:45:41.313Z,26.85
2023-03-11T11:46:41.271Z,26.85
2023-03-11T11:47:41.217Z,26.85
2023-03-11T11:48:41.205Z,26.85
2023-03-11T11:49:41.124Z,26.84
2023-03-11T11:50:41.094Z,26.88
2023-03-11T11:51:41.052Z,26.83
2023-03-11T11:52:40.989Z,26.83
2023-03-11T11:53:40.955Z,26.80
2023-03-11T11:54:40.890Z,26.80
2023-03-11T11:55:40.832Z,26.80
2023-03-11T11:56:40.819Z,26.78
2023-03-11T11:57:40.756Z,26.78
2023-03-11T11:58:40.692Z,26.78
2023-03-11T11:59:40.645Z,26.80
2023-03-11T12:00:40.624Z,26.77
2023-03-11T12:01:40.588Z,26.74
2023-03-11T12:02:40.528Z,26.74
2023-03-11T12:03:40.545Z,26.77
2023-03-11T12:04:40.454Z,26.74
2023-03-11T12:05:40.451Z,26.74
2023-03-11T12:06:40.365Z,26.74
2023-03-11T12:07:40.311Z,26.76
2023-03-11T12:08:40.286Z,26.76
2023-03-11T12:09:40.231Z,26.74
2023-03-11T12:10:40.197Z,26.78
2023-03-11T12:11:41.924Z,26.77
2023-03-11T12:12:40.109Z,26.74
2023-03-11T12:13:40.064Z,26.76
2023-03-11T12:14:40.026Z,26.76
2023-03-11T12:15:40.023Z,26.73
2023-03-11T12:16:39.940Z,26.76
2023-03-11T12:17:39.902Z,26.74
2023-03-11T12:18:39.875Z,26.78
2023-03-11T12:19:39.830Z,26.81
2023-03-11T12:20:39.770Z,26.84
2023-03-11T12:21:39.737Z,26.84
2023-03-11T12:22:39.683Z,26.88
2023-03-11T12:23:39.642Z,26.90
2023-03-11T12:24:39.607Z,26.94
2023-03-11T12:25:39.587Z,26.94
2023-03-11T12:26:39.535Z,26.98
2023-03-11T12:27:39.475Z,26.97
2023-03-11T12:28:39.448Z,26.97
2023-03-11T12:29:39.404Z,26.98
2023-03-11T12:30:39.376Z,26.99
2023-03-11T12:31:39.509Z,26.99
2023-03-11T12:32:39.310Z,26.99
2023-03-11T12:33:39.241Z,27.02
2023-03-11T12:34:39.205Z,27.05
2023-03-11T12:35:39.188Z,27.06
2023-03-11T12:36:39.193Z,27.02
2023-03-11T12:37:39.064Z,27.06
2023-03-11T12:38:39.027Z,27.06
2023-03-11T12:39:38.985Z,27.04
2023-03-11T12:40:38.930Z,27.05
2023-03-11T12:41:38.938Z,27.04
2023-03-11T12:42:38.858Z,27.04
2023-03-11T12:43:38.795Z,27.08
2023-03-11T12:44:38.767Z,27.08
2023-03-11T12:45:38.700Z,27.08
2023-03-11T12:46:38.712Z,27.11
2023-03-11T12:47:38.623Z,27.09
2023-03-11T12:48:38.555Z,27.09
2023-03-11T12:49:38.525Z,27.05
2023-03-11T12:50:38.497Z,27.11
2023-03-11T12:51:38.421Z,27.08
2023-03-11T12:52:38.443Z,27.09
2023-03-11T12:53:38.329Z,27.06
2023-03-11T12:54:38.306Z,27.05
2023-03-11T12:55:38.267Z,27.06
2023-03-11T12:56:38.195Z,27.04
2023-03-11T12:57:38.207Z,27.04
2023-03-11T12:58:38.138Z,27.04
2023-03-11T12:59:38.089Z,27.05
2023-03-11T13:00:38.061Z,27.06
2023-03-11T13:01:38.015Z,27.08
2023-03-11T13:02:38.021Z,27.09
2023-03-11T13:03:37.933Z,27.11
2023-03-11T13:04:37.834Z,27.11
2023-03-11T13:05:37.798Z,27.13
2023-03-11T13:06:37.776Z,27.09
2023-03-11T13:07:37.741Z,27.11
2023-03-11T13:08:37.659Z,27.11
2023-03-11T13:09:37.617Z,27.09
2023-03-11T13:10:37.542Z,27.05
2023-03-11T13:11:37.510Z,27.08
2023-03-11T13:12:37.477Z,27.04
2023-03-11T13:13:37.413Z,27.08
2023-03-11T13:14:37.360Z,27.08
2023-03-11T13:15:37.322Z,27.11
2023-03-11T13:16:37.374Z,27.12
2023-03-11T13:17:37.294Z,27.11
2023-03-11T13:18:37.179Z,27.13
2023-03-11T13:19:37.124Z,27.15
2023-03-11T13:20:37.098Z,27.12
2023-03-11T13:21:37.026Z,27.12
2023-03-11T13:22:36.991Z,27.09
2023-03-11T13:23:36.954Z,27.11
2023-03-11T13:24:36.906Z,27.13
2023-03-11T13:25:36.913Z,27.15
2023-03-11T13:26:36.803Z,27.13
2023-03-11T13:27:36.778Z,27.15
2023-03-11T13:28:36.706Z,27.15
2023-03-11T13:29:36.701Z,27.16
2023-03-11T13:30:36.621Z,27.19
2023-03-11T13:31:36.597Z,27.18
2023-03-11T13:32:36.555Z,27.18
2023-03-11T13:33:36.462Z,27.19
2023-03-11T13:34:36.436Z,27.19
2023-03-11T13:35:36.427Z,27.19
2023-03-11T13:36:36.336Z,27.22
2023-03-11T13:37:36.298Z,27.22
2023-03-11T13:38:36.236Z,27.21
2023-03-11T13:39:36.195Z,27.21
2023-03-11T13:40:36.155Z,27.19
2023-03-11T13:41:36.094Z,27.18
2023-03-11T13:42:36.074Z,27.22
2023-03-11T13:43:36.015Z,27.21
2023-03-11T13:44:35.936Z,27.19
2023-03-11T13:45:35.960Z,27.21
2023-03-11T13:46:35.857Z,27.24
2023-03-11T13:47:35.819Z,27.22
2023-03-11T13:48:37.517Z,27.22
2023-03-11T13:49:35.699Z,27.22
2023-03-11T13:50:35.673Z,27.19
2023-03-11T13:51:35.609Z,27.18
2023-03-11T13:52:35.613Z,27.16
2023-03-11T13:53:35.534Z,27.19
2023-03-11T13:54:35.475Z,27.18
2023-03-11T13:55:35.445Z,27.15
2023-03-11T13:56:35.384Z,27.13
2023-03-11T13:57:35.339Z,27.12
2023-03-11T13:58:35.307Z,27.16
2023-03-11T13:59:35.258Z,27.13
2023-03-11T14:00:35.207Z,27.16
2023-03-11T14:01:35.149Z,27.18
2023-03-11T14:02:35.105Z,27.19
2023-03-11T14:03:35.048Z,27.21
2023-03-11T14:04:35.034Z,27.19
2023-03-11T14:05:34.989Z,27.24
2023-03-11T14:06:34.901Z,27.24
2023-03-11T14:07:34.883Z,27.24
2023-03-11T14:08:34.818Z,27.26
2023-03-11T14:09:34.756Z,27.24
2023-03-11T14:10:34.718Z,27.24
2023-03-11T14:11:34.672Z,27.25
2023-03-11T14:12:34.619Z,27.25
2023-03-11T14:13:34.581Z,27.26
2023-03-11T14:14:34.518Z,27.24
2023-03-11T14:15:34.470Z,27.21
2023-03-11T14:16:34.443Z,27.22
2023-03-11T14:17:34.378Z,27.22
2023-03-11T14:18:34.333Z,27.24
2023-03-11T14:19:34.274Z,27.24
2023-03-11T14:20:34.253Z,27.21
2023-03-11T14:21:34.153Z,27.24
2023-03-11T14:22:34.121Z,27.19
2023-03-11T14:23:34.087Z,27.22
2023-03-11T14:24:34.015Z,27.22
2023-03-11T14:25:33.948Z,27.18
2023-03-11T14:26:33.903Z,27.18
2023-03-11T14:27:33.864Z,27.15
2023-03-11T14:28:33.810Z,27.15
2023-03-11T14:29:33.755Z,27.15
2023-03-11T14:30:33.748Z,27.16
2023-03-11T14:31:33.722Z,27.15
2023-03-11T14:32:33.640Z,27.15
2023-03-11T14:33:33.588Z,27.12
2023-03-11T14:34:33.560Z,27.09
2023-03-11T14:35:33.453Z,27.09
2023-03-11T14:36:33.391Z,27.09
2023-03-11T14:37:33.334Z,27.09
2023-03-11T14:38:33.345Z,27.09
2023-03-11T14:39:33.264Z,27.08
2023-03-11T14:40:33.182Z,27.09
2023-03-11T14:41:33.148Z,27.06
2023-03-11T14:42:33.088Z,27.08
2023-03-11T14:43:33.058Z,27.08
2023-03-11T14:44:32.983Z,27.06
2023-03-11T14:45:33.106Z,27.05
2023-03-11T14:46:32.921Z,27.04
2023-03-11T14:47:32.843Z,27.04
2023-03-11T14:48:32.781Z,27.01
2023-03-11T14:49:32.742Z,27.01
2023-03-11T14:50:32.688Z,27.02
2023-03-11T14:51:32.628Z,26.99
2023-03-11T14:52:32.581Z,26.99
2023-03-11T14:53:32.531Z,26.99
2023-03-11T14:54:32.517Z,26.99
2023-03-11T14:55:32.437Z,26.97
2023-03-11T15:29:30.761Z,26.76
2023-03-11T15:30:30.746Z,26.76
2023-03-11T15:31:30.642Z,26.76
2023-03-11T15:32:30.579Z,26.74
2023-03-11T15:33:30.513Z,26.73
2023-03-11T15:34:30.466Z,26.73
2023-03-11T15:35:30.429Z,26.70
2023-03-11T15:36:30.354Z,26.73
2023-03-11T15:37:30.287Z,26.70
2023-03-11T15:38:30.234Z,26.71
2023-03-11T15:39:30.241Z,26.68
2023-03-11T15:40:44.026Z,26.70
2023-03-11T15:41:31.073Z,26.67
2023-03-11T15:42:30.018Z,26.67
2023-03-11T15:43:29.986Z,26.67
2023-03-11T15:44:29.972Z,26.66
2023-03-11T15:45:29.873Z,26.64
2023-03-11T15:46:29.894Z,26.63
2023-03-11T15:47:29.783Z,26.63
2023-03-11T15:48:29.835Z,26.61
2023-03-11T15:49:29.689Z,26.61
2023-03-11T15:50:40.318Z,26.61
2023-03-11T15:51:30.570Z,26.58
2023-03-11T15:52:29.542Z,26.57
2023-03-11T15:53:29.470Z,26.58
2023-03-11T15:54:29.458Z,26.57
2023-03-11T15:55:29.372Z,26.57
2023-03-11T15:56:29.322Z,26.56
2023-03-11T15:57:29.273Z,26.53
2023-03-11T15:58:29.231Z,26.50
2023-03-11T15:59:29.178Z,26.53
2023-03-11T16:00:29.122Z,26.50
2023-03-11T16:01:29.082Z,26.50
2023-03-11T16:02:29.077Z,26.50
2023-03-11T16:03:31.290Z,26.47
2023-03-11T16:04:29.026Z,26.46
2023-03-11T16:05:28.901Z,26.44
2023-03-11T16:06:28.860Z,26.43
2023-03-11T16:07:39.278Z,26.40
2023-03-11T16:08:29.765Z,26.43
2023-03-11T16:09:28.717Z,26.42
2023-03-11T16:10:28.695Z,26.42
2023-03-11T16:11:28.625Z,26.39
2023-03-11T16:12:28.589Z,26.40
2023-03-11T16:13:28.526Z,26.40
2023-03-11T16:14:28.482Z,26.38
2023-03-11T16:15:28.739Z,26.35
2023-03-11T16:16:28.401Z,26.36
2023-03-11T16:17:39.575Z,26.33
2023-03-11T16:19:28.246Z,26.35
2023-03-11T16:20:28.212Z,26.32
2023-03-11T16:21:28.174Z,26.35
2023-03-11T16:22:28.118Z,26.33
2023-03-11T16:23:28.746Z,26.29
2023-03-11T16:24:28.017Z,26.28
2023-03-11T16:25:27.969Z,26.29
2023-03-11T16:26:27.935Z,26.28
2023-03-11T16:27:27.901Z,26.26
2023-03-11T16:28:27.850Z,26.29
2023-03-11T16:29:27.846Z,26.26
2023-03-11T16:30:27.806Z,26.26
2023-03-11T16:31:27.806Z,26.23
2023-03-11T16:32:27.755Z,26.23
2023-03-11T16:33:27.658Z,26.23
2023-03-11T16:34:27.686Z,26.23
2023-03-11T16:35:27.636Z,26.22
2023-03-11T18:17:23.559Z,25.83
2023-03-11T18:18:23.508Z,25.81
2023-03-11T18:19:23.467Z,25.83
2023-03-11T18:20:23.439Z,25.83
2023-03-11T18:21:23.405Z,25.81
2023-03-11T18:22:23.402Z,25.81
2023-03-11T18:23:23.353Z,25.78
2023-03-11T18:24:23.314Z,25.80
2023-03-11T18:25:23.291Z,25.80
2023-03-11T18:26:23.395Z,25.78
2023-03-11T18:27:23.220Z,25.78
2023-03-11T18:28:23.166Z,25.77
2023-03-11T18:29:24.370Z,25.80
2023-03-11T18:30:23.105Z,25.78
2023-03-11T18:31:23.125Z,25.74
2023-03-11T18:32:23.093Z,25.75
2023-03-11T18:33:23.001Z,25.77
2023-03-11T18:34:22.974Z,25.75
2023-03-11T18:35:22.933Z,25.74
2023-03-11T18:36:22.900Z,25.73
2023-03-11T18:37:22.910Z,25.75
2023-03-11T18:38:22.886Z,25.74
2023-03-11T18:39:22.801Z,25.74
2023-03-11T18:40:22.762Z,25.75
2023-03-11T18:41:22.717Z,25.73
2023-03-11T18:42:22.695Z,25.73
2023-03-11T18:43:22.647Z,25.73
2023-03-11T18:44:22.642Z,25.74
2023-03-11T18:45:22.585Z,25.73
2023-03-11T18:46:22.678Z,25.74
2023-03-11T18:47:22.520Z,25.73
2023-03-11T18:48:22.488Z,25.74
2023-03-11T18:49:22.454Z,25.73
2023-03-11T18:50:22.430Z,25.71
2023-03-11T18:51:22.456Z,25.70
2023-03-11T20:17:19.454Z,25.51
2023-03-11T20:18:19.377Z,25.54
2023-03-11T20:19:19.342Z,25.53
2023-03-11T20:20:19.259Z,25.53
2023-03-11T20:21:19.201Z,25.53
2023-03-11T20:22:19.292Z,25.50
2023-03-11T20:23:19.135Z,25.51
2023-03-11T20:24:19.110Z,25.51
2023-03-11T20:25:19.111Z,25.54
2023-03-11T20:26:19.037Z,25.54
2023-03-11T20:27:18.961Z,25.51
2023-03-11T20:28:18.927Z,25.51
2023-03-11T20:29:18.930Z,25.51
2023-03-11T20:30:18.893Z,25.51
2023-03-11T20:31:18.857Z,25.50
2023-03-11T20:32:18.863Z,25.51
2023-03-11T20:33:18.777Z,25.51
2023-03-11T20:34:18.801Z,25.51
2023-03-11T20:35:18.645Z,25.53
2023-03-11T20:36:18.754Z,25.51
2023-03-11T20:37:18.584Z,25.53
2023-03-11T20:38:18.586Z,25.48
2023-03-11T20:39:18.505Z,25.50
2023-03-11T20:40:18.491Z,25.50
2023-03-11T20:41:18.422Z,25.48
2023-03-11T20:42:18.387Z,25.53
2023-03-11T20:43:18.348Z,25.51
2023-03-11T20:44:18.313Z,25.50
2023-03-11T20:45:18.302Z,25.50
2023-03-11T20:46:18.368Z,25.51
2023-03-11T20:47:18.314Z,25.51
2023-03-11T20:48:18.177Z,25.50
2023-03-11T20:49:18.147Z,25.50
2023-03-11T20:50:18.134Z,25.47
2023-03-11T20:51:18.141Z,25.50
2023-03-11T20:52:18.116Z,25.48
2023-03-11T20:53:17.996Z,25.48
2023-03-11T20:54:17.963Z,25.50
2023-03-11T20:55:18.044Z,25.48
2023-03-11T20:56:17.970Z,25.48
2023-03-11T20:57:17.866Z,25.48
2023-03-11T20:58:17.835Z,25.50
2023-03-11T20:59:17.807Z,25.48
2023-03-11T21:00:17.751Z,25.48
2023-03-11T21:01:17.827Z,25.48
2023-03-11T21:02:17.688Z,25.48
2023-03-11T21:03:17.785Z,25.48
2023-03-11T21:04:17.626Z,25.48
2023-03-11T21:05:17.617Z,25.50
2023-03-11T21:06:17.556Z,25.46
2023-03-11T21:07:17.595Z,25.47
2023-03-11T21:08:17.520Z,25.48
2023-03-11T21:09:17.654Z,25.47
2023-03-11T21:10:17.457Z,25.47
2023-03-11T21:11:17.506Z,25.47
2023-03-11T21:12:17.421Z,25.46
2023-03-11T21:13:17.438Z,25.47
2023-03-11T21:14:17.286Z,25.46
2023-03-11T21:15:17.278Z,25.47
2023-03-11T21:16:17.297Z,25.47
2023-03-11T21:17:17.482Z,25.47
2023-03-11T21:18:17.207Z,25.46
2023-03-11T21:19:17.154Z,25.46
2023-03-11T21:20:17.079Z,25.47
2023-03-11T21:21:17.103Z,25.46
2023-03-11T21:22:17.091Z,25.44
2023-03-11T21:23:16.988Z,25.46
2023-03-11T21:24:17.042Z,25.44
2023-03-11T21:25:17.156Z,25.47
2023-03-11T21:26:17.015Z,25.48
2023-03-11T21:27:16.974Z,25.44
2023-03-11T21:28:16.811Z,25.48
2023-03-11T21:29:16.787Z,25.43
2023-03-11T21:30:16.835Z,25.44
2023-03-11T21:31:16.738Z,25.46
2023-03-11T21:32:16.798Z,25.44
2023-03-11T21:33:16.707Z,25.43
2023-03-11T21:34:16.673Z,25.44
2023-03-11T21:35:16.660Z,25.44
2023-03-11T21:36:16.660Z,25.41
2023-03-11T21:37:16.547Z,25.43
2023-03-11T21:38:16.564Z,25.46
2023-03-11T21:39:16.469Z,25.43
2023-03-11T21:40:16.576Z,25.43
2023-03-11T21:41:16.446Z,25.43
2023-03-11T21:42:16.589Z,25.43
2023-03-11T21:43:16.356Z,25.43
2023-03-11T21:44:16.296Z,25.44
2023-03-11T21:45:16.307Z,25.43
2023-03-11T21:46:16.329Z,25.41
2023-03-11T21:47:16.344Z,25.40
2023-03-11T21:48:16.224Z,25.41
2023-03-11T21:49:16.141Z,25.40
2023-03-11T21:50:16.234Z,25.44
2023-03-11T21:51:16.216Z,25.41
2023-03-11T21:52:16.065Z,25.43